sensor_id;sensor_type;location;lat;lon;timestamp;P1;durP1;ratioP1;P2;durP2;ratioP2
33954;SDS011;20233;50.804;7.126;2022-07-23T00:00:57;15.00;;;13.07;;
33954;SDS011;20233;50.804;7.126;2022-07-23T00:03:23;18.45;;;14.57;;
33954;SDS011;20233;50.804;7.126;2022-07-23T00:05:48;20.77;;;15.00;;
33954;SDS011;20233;50.804;7.126;2022-07-23T00:08:14;19.70;;;14.05;;
33954;SDS011;20233;50.804;7.126;2022-07-23T00:10:40;20.02;;;14.10;;
33954;SDS011;20233;50.804;7.126;2022-07-23T00:13:05;22.70;;;15.57;;
33954;SDS011;20233;50.804;7.126;2022-07-23T00:15:31;18.65;;;14.77;;
33954;SDS011;20233;50.804;7.126;2022-07-23T00:17:56;19.48;;;15.77;;
33954;SDS011;20233;50.804;7.126;2022-07-23T00:20:22;20.13;;;15.38;;
33954;SDS011;20233;50.804;7.126;2022-07-23T00:22:49;20.45;;;15.73;;
33954;SDS011;20233;50.804;7.126;2022-07-23T00:25:19;20.80;;;14.88;;
33954;SDS011;20233;50.804;7.126;2022-07-23T00:27:45;21.48;;;16.10;;
33954;SDS011;20233;50.804;7.126;2022-07-23T00:30:11;21.00;;;15.57;;
33954;SDS011;20233;50.804;7.126;2022-07-23T00:35:19;18.67;;;14.90;;
33954;SDS011;20233;50.804;7.126;2022-07-23T00:37:45;19.70;;;15.38;;
33954;SDS011;20233;50.804;7.126;2022-07-23T00:40:11;18.52;;;14.77;;
33954;SDS011;20233;50.804;7.126;2022-07-23T00:42:37;20.25;;;15.63;;
33954;SDS011;20233;50.804;7.126;2022-07-23T00:45:04;24.60;;;16.23;;
33954;SDS011;20233;50.804;7.126;2022-07-23T00:47:30;20.95;;;16.17;;
33954;SDS011;20233;50.804;7.126;2022-07-23T00:49:56;20.73;;;15.70;;
33954;SDS011;20233;50.804;7.126;2022-07-23T00:52:22;21.77;;;16.25;;
33954;SDS011;20233;50.804;7.126;2022-07-23T00:54:48;21.40;;;16.05;;
33954;SDS011;20233;50.804;7.126;2022-07-23T00:57:14;25.15;;;17.17;;
33954;SDS011;20233;50.804;7.126;2022-07-23T00:59:39;24.85;;;16.10;;
33954;SDS011;20233;50.804;7.126;2022-07-23T01:02:05;24.02;;;17.15;;
33954;SDS011;20233;50.804;7.126;2022-07-23T01:04:31;25.27;;;16.08;;
33954;SDS011;20233;50.804;7.126;2022-07-23T01:06:57;21.58;;;17.13;;
33954;SDS011;20233;50.804;7.126;2022-07-23T01:09:23;23.60;;;17.58;;
33954;SDS011;20233;50.804;7.126;2022-07-23T01:11:49;22.05;;;16.73;;
33954;SDS011;20233;50.804;7.126;2022-07-23T01:14:17;27.05;;;17.90;;
33954;SDS011;20233;50.804;7.126;2022-07-23T01:16:44;23.35;;;17.23;;
33954;SDS011;20233;50.804;7.126;2022-07-23T01:19:12;23.40;;;17.55;;
33954;SDS011;20233;50.804;7.126;2022-07-23T01:21:47;23.08;;;16.67;;
33954;SDS011;20233;50.804;7.126;2022-07-23T01:24:15;22.67;;;17.17;;
33954;SDS011;20233;50.804;7.126;2022-07-23T01:26:41;23.77;;;17.38;;
33954;SDS011;20233;50.804;7.126;2022-07-23T01:29:08;25.58;;;17.85;;
33954;SDS011;20233;50.804;7.126;2022-07-23T01:31:35;25.00;;;17.90;;
33954;SDS011;20233;50.804;7.126;2022-07-23T01:34:01;23.95;;;16.65;;
33954;SDS011;20233;50.804;7.126;2022-07-23T01:36:26;26.65;;;18.40;;
33954;SDS011;20233;50.804;7.126;2022-07-23T01:38:52;21.67;;;17.45;;
33954;SDS011;20233;50.804;7.126;2022-07-23T01:41:18;22.25;;;17.45;;
33954;SDS011;20233;50.804;7.126;2022-07-23T01:43:44;21.30;;;17.63;;
33954;SDS011;20233;50.804;7.126;2022-07-23T01:46:09;25.08;;;17.23;;
33954;SDS011;20233;50.804;7.126;2022-07-23T01:48:35;26.15;;;18.13;;
33954;SDS011;20233;50.804;7.126;2022-07-23T01:51:01;25.63;;;18.42;;
33954;SDS011;20233;50.804;7.126;2022-07-23T01:53:27;27.80;;;17.30;;
33954;SDS011;20233;50.804;7.126;2022-07-23T01:55:53;24.15;;;17.42;;
33954;SDS011;20233;50.804;7.126;2022-07-23T01:58:18;26.80;;;18.02;;
33954;SDS011;20233;50.804;7.126;2022-07-23T02:00:44;25.20;;;17.48;;
33954;SDS011;20233;50.804;7.126;2022-07-23T02:03:09;25.67;;;18.00;;
33954;SDS011;20233;50.804;7.126;2022-07-23T02:05:35;25.63;;;17.42;;
33954;SDS011;20233;50.804;7.126;2022-07-23T02:08:01;23.25;;;16.80;;
33954;SDS011;20233;50.804;7.126;2022-07-23T02:10:27;24.65;;;17.15;;
33954;SDS011;20233;50.804;7.126;2022-07-23T02:12:52;26.42;;;17.25;;
33954;SDS011;20233;50.804;7.126;2022-07-23T02:15:18;24.13;;;16.80;;
33954;SDS011;20233;50.804;7.126;2022-07-23T02:17:44;20.58;;;15.68;;
33954;SDS011;20233;50.804;7.126;2022-07-23T02:20:10;23.38;;;16.73;;
33954;SDS011;20233;50.804;7.126;2022-07-23T02:22:36;27.67;;;17.80;;
33954;SDS011;20233;50.804;7.126;2022-07-23T02:25:03;22.50;;;15.93;;
33954;SDS011;20233;50.804;7.126;2022-07-23T02:27:30;24.60;;;16.75;;
33954;SDS011;20233;50.804;7.126;2022-07-23T02:29:55;28.73;;;17.02;;
33954;SDS011;20233;50.804;7.126;2022-07-23T02:32:21;21.27;;;16.08;;
33954;SDS011;20233;50.804;7.126;2022-07-23T02:34:47;21.67;;;16.08;;
33954;SDS011;20233;50.804;7.126;2022-07-23T02:37:13;22.63;;;16.60;;
33954;SDS011;20233;50.804;7.126;2022-07-23T02:39:39;25.65;;;15.77;;
33954;SDS011;20233;50.804;7.126;2022-07-23T02:42:05;23.48;;;15.75;;
33954;SDS011;20233;50.804;7.126;2022-07-23T02:44:31;24.20;;;15.93;;
33954;SDS011;20233;50.804;7.126;2022-07-23T02:46:56;22.58;;;15.57;;
33954;SDS011;20233;50.804;7.126;2022-07-23T02:49:22;22.73;;;16.17;;
33954;SDS011;20233;50.804;7.126;2022-07-23T02:51:48;22.15;;;15.70;;
33954;SDS011;20233;50.804;7.126;2022-07-23T02:54:13;21.52;;;15.95;;
33954;SDS011;20233;50.804;7.126;2022-07-23T02:56:39;20.90;;;14.77;;
33954;SDS011;20233;50.804;7.126;2022-07-23T02:59:04;20.58;;;14.95;;
33954;SDS011;20233;50.804;7.126;2022-07-23T03:01:30;22.98;;;14.77;;
33954;SDS011;20233;50.804;7.126;2022-07-23T03:03:55;18.85;;;14.73;;
33954;SDS011;20233;50.804;7.126;2022-07-23T03:06:21;20.63;;;15.48;;
33954;SDS011;20233;50.804;7.126;2022-07-23T03:08:47;21.08;;;14.50;;
33954;SDS011;20233;50.804;7.126;2022-07-23T03:11:12;21.45;;;14.80;;
33954;SDS011;20233;50.804;7.126;2022-07-23T03:13:38;21.77;;;15.38;;
33954;SDS011;20233;50.804;7.126;2022-07-23T03:16:05;21.98;;;15.77;;
33954;SDS011;20233;50.804;7.126;2022-07-23T03:18:31;20.10;;;13.73;;
33954;SDS011;20233;50.804;7.126;2022-07-23T03:20:57;19.05;;;13.60;;
33954;SDS011;20233;50.804;7.126;2022-07-23T03:23:23;18.42;;;14.15;;
33954;SDS011;20233;50.804;7.126;2022-07-23T03:25:48;18.02;;;13.05;;
33954;SDS011;20233;50.804;7.126;2022-07-23T03:28:14;16.10;;;12.75;;
33954;SDS011;20233;50.804;7.126;2022-07-23T03:30:41;16.70;;;12.30;;
33954;SDS011;20233;50.804;7.126;2022-07-23T03:33:07;16.67;;;12.43;;
33954;SDS011;20233;50.804;7.126;2022-07-23T03:35:33;20.55;;;14.32;;
33954;SDS011;20233;50.804;7.126;2022-07-23T03:37:59;19.40;;;13.90;;
33954;SDS011;20233;50.804;7.126;2022-07-23T03:40:25;22.80;;;14.82;;
33954;SDS011;20233;50.804;7.126;2022-07-23T03:42:50;22.10;;;15.85;;
33954;SDS011;20233;50.804;7.126;2022-07-23T03:45:16;25.63;;;16.83;;
33954;SDS011;20233;50.804;7.126;2022-07-23T03:47:41;23.23;;;17.35;;
33954;SDS011;20233;50.804;7.126;2022-07-23T03:50:08;24.38;;;17.40;;
33954;SDS011;20233;50.804;7.126;2022-07-23T03:52:34;26.25;;;18.67;;
33954;SDS011;20233;50.804;7.126;2022-07-23T03:54:59;27.17;;;17.73;;
33954;SDS011;20233;50.804;7.126;2022-07-23T03:57:25;29.33;;;19.17;;
33954;SDS011;20233;50.804;7.126;2022-07-23T03:59:51;29.45;;;17.38;;
33954;SDS011;20233;50.804;7.126;2022-07-23T04:02:16;25.52;;;17.75;;
33954;SDS011;20233;50.804;7.126;2022-07-23T04:04:42;29.20;;;18.73;;
33954;SDS011;20233;50.804;7.126;2022-07-23T04:07:07;32.05;;;18.75;;
33954;SDS011;20233;50.804;7.126;2022-07-23T04:09:33;28.33;;;18.52;;
33954;SDS011;20233;50.804;7.126;2022-07-23T04:11:59;30.92;;;20.48;;
33954;SDS011;20233;50.804;7.126;2022-07-23T04:14:24;30.33;;;19.98;;
33954;SDS011;20233;50.804;7.126;2022-07-23T04:16:50;32.13;;;20.33;;
33954;SDS011;20233;50.804;7.126;2022-07-23T04:19:16;35.05;;;21.58;;
33954;SDS011;20233;50.804;7.126;2022-07-23T04:21:41;36.95;;;22.55;;
33954;SDS011;20233;50.804;7.126;2022-07-23T04:24:07;37.28;;;24.08;;
33954;SDS011;20233;50.804;7.126;2022-07-23T04:26:33;37.38;;;23.58;;
33954;SDS011;20233;50.804;7.126;2022-07-23T04:28:58;31.80;;;21.63;;
33954;SDS011;20233;50.804;7.126;2022-07-23T04:31:24;31.25;;;20.80;;
33954;SDS011;20233;50.804;7.126;2022-07-23T04:33:49;32.80;;;20.98;;
33954;SDS011;20233;50.804;7.126;2022-07-23T04:36:15;29.50;;;19.95;;
33954;SDS011;20233;50.804;7.126;2022-07-23T04:38:41;33.03;;;19.70;;
33954;SDS011;20233;50.804;7.126;2022-07-23T04:41:06;29.67;;;19.83;;
33954;SDS011;20233;50.804;7.126;2022-07-23T04:43:32;27.80;;;18.52;;
33954;SDS011;20233;50.804;7.126;2022-07-23T04:45:58;28.63;;;18.38;;
33954;SDS011;20233;50.804;7.126;2022-07-23T04:48:23;26.77;;;18.23;;
33954;SDS011;20233;50.804;7.126;2022-07-23T04:50:49;28.73;;;18.05;;
33954;SDS011;20233;50.804;7.126;2022-07-23T04:53:14;31.48;;;19.00;;
33954;SDS011;20233;50.804;7.126;2022-07-23T04:55:40;28.20;;;17.85;;
33954;SDS011;20233;50.804;7.126;2022-07-23T04:58:06;26.30;;;17.55;;
33954;SDS011;20233;50.804;7.126;2022-07-23T05:00:31;28.08;;;18.83;;
33954;SDS011;20233;50.804;7.126;2022-07-23T05:02:57;26.80;;;17.58;;
33954;SDS011;20233;50.804;7.126;2022-07-23T05:05:23;27.55;;;19.08;;
33954;SDS011;20233;50.804;7.126;2022-07-23T05:07:48;30.55;;;19.55;;
33954;SDS011;20233;50.804;7.126;2022-07-23T05:10:14;31.15;;;19.70;;
33954;SDS011;20233;50.804;7.126;2022-07-23T05:12:39;26.20;;;18.05;;
33954;SDS011;20233;50.804;7.126;2022-07-23T05:15:05;29.70;;;20.63;;
33954;SDS011;20233;50.804;7.126;2022-07-23T05:17:31;32.65;;;20.52;;
33954;SDS011;20233;50.804;7.126;2022-07-23T05:19:56;31.48;;;20.45;;
33954;SDS011;20233;50.804;7.126;2022-07-23T05:22:22;36.35;;;21.17;;
33954;SDS011;20233;50.804;7.126;2022-07-23T05:24:47;33.92;;;20.17;;
33954;SDS011;20233;50.804;7.126;2022-07-23T05:27:13;29.55;;;20.38;;
33954;SDS011;20233;50.804;7.126;2022-07-23T05:29:39;33.75;;;21.05;;
33954;SDS011;20233;50.804;7.126;2022-07-23T05:32:04;30.63;;;21.17;;
33954;SDS011;20233;50.804;7.126;2022-07-23T05:34:30;27.60;;;18.33;;
33954;SDS011;20233;50.804;7.126;2022-07-23T05:36:56;35.13;;;21.50;;
33954;SDS011;20233;50.804;7.126;2022-07-23T05:39:21;31.95;;;20.98;;
33954;SDS011;20233;50.804;7.126;2022-07-23T05:41:47;32.97;;;21.13;;
33954;SDS011;20233;50.804;7.126;2022-07-23T05:44:13;32.25;;;20.75;;
33954;SDS011;20233;50.804;7.126;2022-07-23T05:46:38;33.67;;;20.98;;
33954;SDS011;20233;50.804;7.126;2022-07-23T05:49:04;28.58;;;18.85;;
33954;SDS011;20233;50.804;7.126;2022-07-23T05:51:29;31.90;;;19.58;;
33954;SDS011;20233;50.804;7.126;2022-07-23T05:53:55;32.10;;;19.55;;
33954;SDS011;20233;50.804;7.126;2022-07-23T05:56:21;33.13;;;19.88;;
33954;SDS011;20233;50.804;7.126;2022-07-23T05:58:46;31.05;;;19.73;;
33954;SDS011;20233;50.804;7.126;2022-07-23T06:01:12;30.77;;;19.15;;
33954;SDS011;20233;50.804;7.126;2022-07-23T06:03:38;28.98;;;18.60;;
33954;SDS011;20233;50.804;7.126;2022-07-23T06:06:04;28.45;;;17.80;;
33954;SDS011;20233;50.804;7.126;2022-07-23T06:08:30;28.77;;;19.48;;
33954;SDS011;20233;50.804;7.126;2022-07-23T06:10:56;25.88;;;17.27;;
33954;SDS011;20233;50.804;7.126;2022-07-23T06:13:21;26.33;;;18.20;;
33954;SDS011;20233;50.804;7.126;2022-07-23T06:15:47;29.15;;;17.42;;
33954;SDS011;20233;50.804;7.126;2022-07-23T06:18:13;26.95;;;16.63;;
33954;SDS011;20233;50.804;7.126;2022-07-23T06:20:39;25.88;;;17.33;;
33954;SDS011;20233;50.804;7.126;2022-07-23T06:23:05;29.73;;;19.48;;
33954;SDS011;20233;50.804;7.126;2022-07-23T06:25:30;25.33;;;18.05;;
33954;SDS011;20233;50.804;7.126;2022-07-23T06:27:56;27.65;;;17.40;;
33954;SDS011;20233;50.804;7.126;2022-07-23T06:30:22;26.00;;;17.70;;
33954;SDS011;20233;50.804;7.126;2022-07-23T06:32:47;28.50;;;17.95;;
33954;SDS011;20233;50.804;7.126;2022-07-23T06:35:14;24.80;;;16.90;;
33954;SDS011;20233;50.804;7.126;2022-07-23T06:37:40;25.45;;;17.52;;
33954;SDS011;20233;50.804;7.126;2022-07-23T06:40:06;30.05;;;17.17;;
33954;SDS011;20233;50.804;7.126;2022-07-23T06:42:32;29.83;;;18.10;;
33954;SDS011;20233;50.804;7.126;2022-07-23T06:44:57;25.00;;;16.90;;
33954;SDS011;20233;50.804;7.126;2022-07-23T06:47:23;26.92;;;15.98;;
33954;SDS011;20233;50.804;7.126;2022-07-23T06:49:49;25.08;;;16.25;;
33954;SDS011;20233;50.804;7.126;2022-07-23T06:52:14;26.65;;;16.88;;
33954;SDS011;20233;50.804;7.126;2022-07-23T06:54:40;24.60;;;16.63;;
33954;SDS011;20233;50.804;7.126;2022-07-23T06:57:05;26.13;;;15.63;;
33954;SDS011;20233;50.804;7.126;2022-07-23T06:59:31;22.58;;;15.55;;
33954;SDS011;20233;50.804;7.126;2022-07-23T07:01:58;26.23;;;15.13;;
33954;SDS011;20233;50.804;7.126;2022-07-23T07:04:23;22.25;;;15.68;;
33954;SDS011;20233;50.804;7.126;2022-07-23T07:06:49;21.92;;;13.25;;
33954;SDS011;20233;50.804;7.126;2022-07-23T07:09:14;22.55;;;15.10;;
33954;SDS011;20233;50.804;7.126;2022-07-23T07:11:40;18.65;;;12.13;;
33954;SDS011;20233;50.804;7.126;2022-07-23T07:14:06;23.42;;;13.77;;
33954;SDS011;20233;50.804;7.126;2022-07-23T07:16:34;19.85;;;12.73;;
33954;SDS011;20233;50.804;7.126;2022-07-23T07:19:00;18.45;;;13.02;;
33954;SDS011;20233;50.804;7.126;2022-07-23T07:21:26;22.33;;;15.07;;
33954;SDS011;20233;50.804;7.126;2022-07-23T07:23:51;17.58;;;12.10;;
33954;SDS011;20233;50.804;7.126;2022-07-23T07:26:17;19.40;;;11.98;;
33954;SDS011;20233;50.804;7.126;2022-07-23T07:28:43;19.95;;;13.02;;
33954;SDS011;20233;50.804;7.126;2022-07-23T07:31:08;21.98;;;13.40;;
33954;SDS011;20233;50.804;7.126;2022-07-23T07:33:34;15.55;;;10.48;;
33954;SDS011;20233;50.804;7.126;2022-07-23T07:35:59;17.15;;;11.00;;
33954;SDS011;20233;50.804;7.126;2022-07-23T07:38:25;16.02;;;11.93;;
33954;SDS011;20233;50.804;7.126;2022-07-23T07:40:51;13.43;;;9.10;;
33954;SDS011;20233;50.804;7.126;2022-07-23T07:43:16;14.38;;;8.80;;
33954;SDS011;20233;50.804;7.126;2022-07-23T07:45:42;13.35;;;9.48;;
33954;SDS011;20233;50.804;7.126;2022-07-23T07:48:08;13.23;;;9.65;;
33954;SDS011;20233;50.804;7.126;2022-07-23T07:50:33;19.75;;;10.05;;
33954;SDS011;20233;50.804;7.126;2022-07-23T07:52:59;16.58;;;10.90;;
33954;SDS011;20233;50.804;7.126;2022-07-23T07:55:24;11.82;;;9.00;;
33954;SDS011;20233;50.804;7.126;2022-07-23T07:57:50;12.93;;;9.18;;
33954;SDS011;20233;50.804;7.126;2022-07-23T08:00:16;12.27;;;8.77;;
33954;SDS011;20233;50.804;7.126;2022-07-23T08:02:48;13.85;;;9.20;;
33954;SDS011;20233;50.804;7.126;2022-07-23T08:05:18;9.70;;;8.10;;
33954;SDS011;20233;50.804;7.126;2022-07-23T08:07:48;15.27;;;9.63;;
33954;SDS011;20233;50.804;7.126;2022-07-23T08:10:14;12.20;;;8.23;;
33954;SDS011;20233;50.804;7.126;2022-07-23T08:12:41;15.38;;;9.80;;
33954;SDS011;20233;50.804;7.126;2022-07-23T08:15:12;12.95;;;8.63;;
33954;SDS011;20233;50.804;7.126;2022-07-23T08:17:40;13.50;;;9.85;;
33954;SDS011;20233;50.804;7.126;2022-07-23T08:20:07;12.80;;;9.05;;
33954;SDS011;20233;50.804;7.126;2022-07-23T08:22:41;14.70;;;9.27;;
33954;SDS011;20233;50.804;7.126;2022-07-23T08:25:15;14.05;;;9.05;;
33954;SDS011;20233;50.804;7.126;2022-07-23T08:27:48;11.90;;;8.65;;
33954;SDS011;20233;50.804;7.126;2022-07-23T08:30:14;14.50;;;10.02;;
33954;SDS011;20233;50.804;7.126;2022-07-23T08:32:48;14.93;;;9.63;;
33954;SDS011;20233;50.804;7.126;2022-07-23T08:35:15;14.60;;;8.80;;
33954;SDS011;20233;50.804;7.126;2022-07-23T08:37:42;15.02;;;10.02;;
33954;SDS011;20233;50.804;7.126;2022-07-23T08:40:08;15.65;;;10.38;;
33954;SDS011;20233;50.804;7.126;2022-07-23T08:42:34;14.75;;;10.02;;
33954;SDS011;20233;50.804;7.126;2022-07-23T08:45:03;14.02;;;10.05;;
33954;SDS011;20233;50.804;7.126;2022-07-23T08:47:29;14.35;;;9.40;;
33954;SDS011;20233;50.804;7.126;2022-07-23T08:49:58;14.43;;;10.57;;
33954;SDS011;20233;50.804;7.126;2022-07-23T08:52:24;13.25;;;8.60;;
33954;SDS011;20233;50.804;7.126;2022-07-23T08:54:51;13.52;;;9.27;;
33954;SDS011;20233;50.804;7.126;2022-07-23T08:57:18;14.55;;;9.15;;
33954;SDS011;20233;50.804;7.126;2022-07-23T08:59:43;15.05;;;10.20;;
33954;SDS011;20233;50.804;7.126;2022-07-23T09:02:09;15.27;;;11.57;;
33954;SDS011;20233;50.804;7.126;2022-07-23T09:04:34;12.98;;;9.55;;
33954;SDS011;20233;50.804;7.126;2022-07-23T09:07:01;12.77;;;10.30;;
33954;SDS011;20233;50.804;7.126;2022-07-23T09:09:27;12.63;;;9.05;;
33954;SDS011;20233;50.804;7.126;2022-07-23T09:12:05;14.02;;;10.30;;
33954;SDS011;20233;50.804;7.126;2022-07-23T09:14:39;16.67;;;9.75;;
33954;SDS011;20233;50.804;7.126;2022-07-23T09:17:13;12.40;;;10.57;;
33954;SDS011;20233;50.804;7.126;2022-07-23T09:19:41;17.80;;;10.82;;
33954;SDS011;20233;50.804;7.126;2022-07-23T09:22:23;12.90;;;9.15;;
33954;SDS011;20233;50.804;7.126;2022-07-23T09:30:27;14.05;;;9.82;;
33954;SDS011;20233;50.804;7.126;2022-07-23T09:38:21;11.48;;;8.98;;
33954;SDS011;20233;50.804;7.126;2022-07-23T09:41:05;13.98;;;9.80;;
33954;SDS011;20233;50.804;7.126;2022-07-23T09:43:34;12.60;;;9.02;;
33954;SDS011;20233;50.804;7.126;2022-07-23T09:48:46;11.38;;;9.45;;
33954;SDS011;20233;50.804;7.126;2022-07-23T09:51:12;15.27;;;10.13;;
33954;SDS011;20233;50.804;7.126;2022-07-23T09:53:45;13.27;;;10.18;;
33954;SDS011;20233;50.804;7.126;2022-07-23T09:56:11;11.82;;;9.95;;
33954;SDS011;20233;50.804;7.126;2022-07-23T09:58:40;14.25;;;8.63;;
33954;SDS011;20233;50.804;7.126;2022-07-23T10:01:11;9.50;;;7.85;;
33954;SDS011;20233;50.804;7.126;2022-07-23T10:03:38;12.25;;;8.48;;
33954;SDS011;20233;50.804;7.126;2022-07-23T10:06:05;9.02;;;7.25;;
33954;SDS011;20233;50.804;7.126;2022-07-23T10:08:32;11.05;;;7.60;;
33954;SDS011;20233;50.804;7.126;2022-07-23T10:10:59;11.48;;;7.13;;
33954;SDS011;20233;50.804;7.126;2022-07-23T10:13:26;11.05;;;7.50;;
33954;SDS011;20233;50.804;7.126;2022-07-23T10:16:11;10.95;;;9.10;;
33954;SDS011;20233;50.804;7.126;2022-07-23T10:18:37;11.05;;;8.90;;
33954;SDS011;20233;50.804;7.126;2022-07-23T10:21:05;10.13;;;9.13;;
33954;SDS011;20233;50.804;7.126;2022-07-23T10:23:37;10.68;;;9.18;;
33954;SDS011;20233;50.804;7.126;2022-07-23T10:28:56;10.07;;;8.15;;
33954;SDS011;20233;50.804;7.126;2022-07-23T10:31:46;10.77;;;8.05;;
33954;SDS011;20233;50.804;7.126;2022-07-23T10:39:41;8.52;;;7.13;;
33954;SDS011;20233;50.804;7.126;2022-07-23T10:42:14;8.82;;;6.80;;
33954;SDS011;20233;50.804;7.126;2022-07-23T10:44:42;9.95;;;7.20;;
33954;SDS011;20233;50.804;7.126;2022-07-23T10:47:11;8.98;;;6.93;;
33954;SDS011;20233;50.804;7.126;2022-07-23T10:50:16;11.27;;;8.13;;
33954;SDS011;20233;50.804;7.126;2022-07-23T10:53:07;9.63;;;7.13;;
33954;SDS011;20233;50.804;7.126;2022-07-23T10:57:55;9.93;;;5.93;;
33954;SDS011;20233;50.804;7.126;2022-07-23T11:00:22;7.93;;;6.28;;
33954;SDS011;20233;50.804;7.126;2022-07-23T11:02:50;8.63;;;5.13;;
33954;SDS011;20233;50.804;7.126;2022-07-23T11:05:21;5.88;;;4.90;;
33954;SDS011;20233;50.804;7.126;2022-07-23T11:36:57;8.02;;;5.55;;
33954;SDS011;20233;50.804;7.126;2022-07-23T11:39:24;4.65;;;4.00;;
33954;SDS011;20233;50.804;7.126;2022-07-23T11:41:51;4.60;;;3.65;;
33954;SDS011;20233;50.804;7.126;2022-07-23T11:44:37;9.18;;;6.68;;
33954;SDS011;20233;50.804;7.126;2022-07-23T11:47:04;9.20;;;6.03;;
33954;SDS011;20233;50.804;7.126;2022-07-23T11:49:33;8.60;;;6.07;;
33954;SDS011;20233;50.804;7.126;2022-07-23T11:52:09;9.27;;;6.78;;
33954;SDS011;20233;50.804;7.126;2022-07-23T11:54:40;7.35;;;5.55;;
33954;SDS011;20233;50.804;7.126;2022-07-23T11:57:14;8.63;;;5.10;;
33954;SDS011;20233;50.804;7.126;2022-07-23T11:59:40;6.82;;;4.45;;
33954;SDS011;20233;50.804;7.126;2022-07-23T12:02:07;6.90;;;4.20;;
33954;SDS011;20233;50.804;7.126;2022-07-23T12:04:42;7.53;;;4.13;;
33954;SDS011;20233;50.804;7.126;2022-07-23T12:07:29;6.63;;;4.68;;
33954;SDS011;20233;50.804;7.126;2022-07-23T12:15:13;6.55;;;4.05;;
33954;SDS011;20233;50.804;7.126;2022-07-23T12:17:41;5.50;;;3.75;;
33954;SDS011;20233;50.804;7.126;2022-07-23T12:20:09;5.03;;;3.80;;
33954;SDS011;20233;50.804;7.126;2022-07-23T12:22:38;5.50;;;3.75;;
33954;SDS011;20233;50.804;7.126;2022-07-23T12:25:13;5.70;;;3.40;;
33954;SDS011;20233;50.804;7.126;2022-07-23T12:27:40;8.10;;;5.25;;
33954;SDS011;20233;50.804;7.126;2022-07-23T12:32:45;6.60;;;5.18;;
33954;SDS011;20233;50.804;7.126;2022-07-23T12:35:11;5.68;;;4.00;;
33954;SDS011;20233;50.804;7.126;2022-07-23T12:37:39;7.43;;;5.40;;
33954;SDS011;20233;50.804;7.126;2022-07-23T12:40:18;7.38;;;5.07;;
33954;SDS011;20233;50.804;7.126;2022-07-23T12:42:47;7.30;;;5.63;;
33954;SDS011;20233;50.804;7.126;2022-07-23T12:45:14;7.00;;;5.53;;
33954;SDS011;20233;50.804;7.126;2022-07-23T12:50:38;7.72;;;6.55;;
33954;SDS011;20233;50.804;7.126;2022-07-23T12:55:39;7.63;;;6.07;;
33954;SDS011;20233;50.804;7.126;2022-07-23T12:58:10;7.25;;;5.13;;
33954;SDS011;20233;50.804;7.126;2022-07-23T13:00:49;6.90;;;5.35;;
33954;SDS011;20233;50.804;7.126;2022-07-23T13:03:27;6.97;;;5.72;;
33954;SDS011;20233;50.804;7.126;2022-07-23T13:05:53;6.97;;;5.22;;
33954;SDS011;20233;50.804;7.126;2022-07-23T13:08:19;7.22;;;5.13;;
33954;SDS011;20233;50.804;7.126;2022-07-23T13:10:45;6.38;;;4.43;;
33954;SDS011;20233;50.804;7.126;2022-07-23T13:13:16;8.15;;;5.90;;
33954;SDS011;20233;50.804;7.126;2022-07-23T13:15:44;7.35;;;5.38;;
33954;SDS011;20233;50.804;7.126;2022-07-23T13:18:10;7.43;;;4.93;;
33954;SDS011;20233;50.804;7.126;2022-07-23T13:20:36;7.22;;;5.03;;
33954;SDS011;20233;50.804;7.126;2022-07-23T13:23:03;6.38;;;4.72;;
33954;SDS011;20233;50.804;7.126;2022-07-23T13:25:31;5.40;;;4.32;;
33954;SDS011;20233;50.804;7.126;2022-07-23T13:27:56;4.75;;;4.25;;
33954;SDS011;20233;50.804;7.126;2022-07-23T13:30:22;9.48;;;6.65;;
33954;SDS011;20233;50.804;7.126;2022-07-23T13:32:48;7.35;;;4.70;;
33954;SDS011;20233;50.804;7.126;2022-07-23T13:35:14;9.02;;;4.93;;
33954;SDS011;20233;50.804;7.126;2022-07-23T13:37:40;6.38;;;4.72;;
33954;SDS011;20233;50.804;7.126;2022-07-23T13:40:05;7.93;;;5.25;;
33954;SDS011;20233;50.804;7.126;2022-07-23T13:42:32;6.07;;;4.50;;
33954;SDS011;20233;50.804;7.126;2022-07-23T13:44:57;5.55;;;4.40;;
33954;SDS011;20233;50.804;7.126;2022-07-23T13:47:23;6.53;;;3.97;;
33954;SDS011;20233;50.804;7.126;2022-07-23T13:49:49;6.95;;;3.47;;
33954;SDS011;20233;50.804;7.126;2022-07-23T13:52:14;7.28;;;4.25;;
33954;SDS011;20233;50.804;7.126;2022-07-23T13:54:40;5.75;;;3.97;;
33954;SDS011;20233;50.804;7.126;2022-07-23T13:57:06;6.45;;;4.18;;
33954;SDS011;20233;50.804;7.126;2022-07-23T13:59:32;6.57;;;4.35;;
33954;SDS011;20233;50.804;7.126;2022-07-23T14:01:58;7.32;;;5.03;;
33954;SDS011;20233;50.804;7.126;2022-07-23T14:04:24;5.53;;;3.13;;
33954;SDS011;20233;50.804;7.126;2022-07-23T14:06:49;5.43;;;3.40;;
33954;SDS011;20233;50.804;7.126;2022-07-23T14:09:15;7.32;;;3.83;;
33954;SDS011;20233;50.804;7.126;2022-07-23T14:11:40;4.88;;;3.50;;
33954;SDS011;20233;50.804;7.126;2022-07-23T14:14:06;5.75;;;3.92;;
33954;SDS011;20233;50.804;7.126;2022-07-23T14:16:31;4.65;;;3.35;;
33954;SDS011;20233;50.804;7.126;2022-07-23T14:18:57;4.57;;;3.60;;
33954;SDS011;20233;50.804;7.126;2022-07-23T14:21:23;4.95;;;2.95;;
33954;SDS011;20233;50.804;7.126;2022-07-23T14:23:48;4.57;;;3.28;;
33954;SDS011;20233;50.804;7.126;2022-07-23T14:26:14;6.68;;;4.47;;
33954;SDS011;20233;50.804;7.126;2022-07-23T14:28:40;4.38;;;3.22;;
33954;SDS011;20233;50.804;7.126;2022-07-23T14:31:05;5.68;;;3.75;;
33954;SDS011;20233;50.804;7.126;2022-07-23T14:33:31;5.97;;;3.67;;
33954;SDS011;20233;50.804;7.126;2022-07-23T14:35:56;4.05;;;2.72;;
33954;SDS011;20233;50.804;7.126;2022-07-23T14:38:23;5.03;;;3.05;;
33954;SDS011;20233;50.804;7.126;2022-07-23T14:40:49;6.70;;;4.00;;
33954;SDS011;20233;50.804;7.126;2022-07-23T14:43:15;3.83;;;3.05;;
33954;SDS011;20233;50.804;7.126;2022-07-23T14:45:40;3.88;;;2.88;;
33954;SDS011;20233;50.804;7.126;2022-07-23T14:48:06;3.38;;;2.22;;
33954;SDS011;20233;50.804;7.126;2022-07-23T14:50:32;5.38;;;2.22;;
33954;SDS011;20233;50.804;7.126;2022-07-23T14:52:57;4.60;;;2.55;;
33954;SDS011;20233;50.804;7.126;2022-07-23T14:55:23;5.88;;;1.98;;
33954;SDS011;20233;50.804;7.126;2022-07-23T14:57:49;4.95;;;2.58;;
33954;SDS011;20233;50.804;7.126;2022-07-23T15:00:14;3.50;;;2.70;;
33954;SDS011;20233;50.804;7.126;2022-07-23T15:02:40;4.28;;;2.30;;
33954;SDS011;20233;50.804;7.126;2022-07-23T15:05:06;4.13;;;1.67;;
33954;SDS011;20233;50.804;7.126;2022-07-23T15:07:31;4.63;;;3.03;;
33954;SDS011;20233;50.804;7.126;2022-07-23T15:09:57;3.40;;;2.17;;
33954;SDS011;20233;50.804;7.126;2022-07-23T15:12:23;4.68;;;2.60;;
33954;SDS011;20233;50.804;7.126;2022-07-23T15:14:49;3.47;;;2.45;;
33954;SDS011;20233;50.804;7.126;2022-07-23T15:17:15;4.88;;;2.08;;
33954;SDS011;20233;50.804;7.126;2022-07-23T15:19:41;3.67;;;2.25;;
33954;SDS011;20233;50.804;7.126;2022-07-23T15:22:07;4.72;;;2.28;;
33954;SDS011;20233;50.804;7.126;2022-07-23T15:24:33;4.63;;;2.30;;
33954;SDS011;20233;50.804;7.126;2022-07-23T15:26:58;4.47;;;1.85;;
33954;SDS011;20233;50.804;7.126;2022-07-23T15:29:24;4.25;;;2.08;;
33954;SDS011;20233;50.804;7.126;2022-07-23T15:31:50;3.30;;;2.00;;
33954;SDS011;20233;50.804;7.126;2022-07-23T15:34:15;4.68;;;2.30;;
33954;SDS011;20233;50.804;7.126;2022-07-23T15:36:41;5.90;;;2.30;;
33954;SDS011;20233;50.804;7.126;2022-07-23T15:39:07;3.35;;;2.10;;